Mount Lookout, West Virginia
Current Conditions -  °F | °C
As of 2:51 PM on Friday 24 Oct 2014 (Local Time) from KBKW Reporting Station
Clear Clear  
Wind Chill: 56°   Ceiling: Unl
Heat Index: 56°   Visibility: 10mi
Dew Point: 38°   Wind: 8mph
Humidity: 51%   Direction: 360°N
Pressure: 30.06"   Gusts: NA
Location:  38.17°N, 80.91°W
Report Text: KBKW 241851Z AUTO 36007KT 10SM CLR 13/03 A3006 RMK AO2 SLP181 T01330033 TSNO
Loading
Personal Weather Stations






























Interactive Weather Map
Tropical Storm Tracking
New forecast layout! Learn more

10-Day Weather Forecast

Advertisements
Track Severe Weather on mobile